Time;durP1;ratioP1;P1;durP2;ratioP2;P2;SDS_P1;SDS_P2;PMS_P1;PMS_P2;Temp;Humidity;BMP_temperature;BMP_pressure;BME280_temperature;BME280_humidity;BME280_pressure;Samples;Min_cycle;Max_cycle;Signal;HPM_P1;HPM_P2
2022/03/27 00:01:51;;;;;;;0.43;0.43;;;;;;;8.89;46.49;99847.81;6278241;22;20101;-81
2022/03/27 00:04:17;;;;;;;0.00;0.00;;;;;;;8.86;46.62;99847.50;6252716;22;20444;-82
2022/03/27 00:21:09;;;;;;;0.00;0.00;;;;;;;8.80;46.51;99835.94;6309383;22;20022;-81
2022/03/27 00:23:34;;;;;;;0.00;0.00;;;;;;;8.79;46.28;99835.13;6307396;22;20027;-82
2022/03/27 00:46:21;;;;;;;0.00;0.00;;;;;;;8.27;47.82;99812.16;6317541;22;20075;-85
2022/03/27 01:02:15;;;;;;;0.00;0.00;;;;;;;8.00;48.91;99810.13;6312910;22;20046;-78
2022/03/27 01:04:44;;;;;;;0.10;0.10;;;;;;;7.96;48.54;99811.66;6279170;22;20023;-78
2022/03/27 01:07:18;;;;;;;0.00;0.00;;;;;;;7.95;49.18;99810.03;6278835;22;20060;-82
2022/03/27 01:09:47;;;;;;;0.00;0.00;;;;;;;7.90;49.07;99809.97;6306823;22;20001;-79
2022/03/27 01:12:24;;;;;;;0.00;0.00;;;;;;;7.89;49.46;99808.34;6282126;22;20479;-82
2022/03/27 01:14:51;;;;;;;0.00;0.00;;;;;;;7.82;49.51;99811.16;6288789;22;19999;-81
2022/03/27 01:17:27;;;;;;;0.00;0.00;;;;;;;7.76;49.63;99812.09;6299914;22;19991;-84
2022/03/27 01:20:21;;;;;;;0.00;0.00;;;;;;;7.69;49.47;99808.78;6333990;22;20014;-83
2022/03/27 01:22:47;;;;;;;0.00;0.00;;;;;;;7.65;49.35;99813.78;6282032;22;20082;-78
2022/03/27 01:25:12;;;;;;;0.00;0.00;;;;;;;7.60;49.21;99811.00;6308176;22;19999;-78
2022/03/27 01:27:37;;;;;;;0.00;0.00;;;;;;;7.56;49.48;99807.19;6281322;22;20014;-78
2022/03/27 01:30:03;;;;;;;0.52;0.52;;;;;;;7.52;49.20;99804.22;6290996;22;20447;-77
2022/03/27 01:35:55;;;;;;;0.00;0.00;;;;;;;7.43;49.55;99804.81;6232335;22;20030;-79
2022/03/27 01:38:20;;;;;;;0.00;0.00;;;;;;;7.32;49.61;99796.66;6289698;22;20015;-77
2022/03/27 01:40:46;;;;;;;0.00;0.00;;;;;;;7.27;49.41;99804.50;6292127;22;20433;-81
2022/03/27 01:49:08;;;;;;;0.00;0.00;;;;;;;7.16;49.96;99808.00;6283666;22;20001;-86
2022/03/27 01:57:03;;;;;;;0.10;0.10;;;;;;;7.05;50.00;99802.47;6329418;22;20007;-82
2022/03/27 01:59:33;;;;;;;0.00;0.00;;;;;;;6.95;50.10;99802.25;6295948;22;20023;-82
2022/03/27 02:01:59;;;;;;;0.00;0.00;;;;;;;6.94;50.18;99807.81;6260092;22;20003;-82
2022/03/27 02:04:25;;;;;;;0.00;0.00;;;;;;;6.85;50.35;99805.50;6261908;22;20002;-81
2022/03/27 02:06:50;;;;;;;0.00;0.00;;;;;;;6.80;50.54;99807.22;6282277;22;20003;-80
2022/03/27 02:09:16;;;;;;;0.00;0.00;;;;;;;6.77;50.65;99797.06;6281985;22;20007;-79
2022/03/27 02:11:42;;;;;;;0.00;0.00;;;;;;;6.74;50.55;99803.66;6282050;22;20078;-81
2022/03/27 02:14:08;;;;;;;0.00;0.00;;;;;;;6.71;50.42;99802.28;6282335;22;20349;-80
2022/03/27 02:16:50;;;;;;;0.00;0.00;;;;;;;6.65;50.07;99797.88;6294185;22;20098;-81
2022/03/27 02:19:17;;;;;;;0.00;0.00;;;;;;;6.72;50.51;99806.53;6320970;22;20045;-82
2022/03/27 02:21:43;;;;;;;0.00;0.00;;;;;;;6.64;50.44;99806.06;6260443;22;20007;-80
2022/03/27 02:24:14;;;;;;;0.00;0.00;;;;;;;6.62;50.69;99800.19;6293230;22;20002;-80
2022/03/27 02:26:47;;;;;;;0.00;0.00;;;;;;;6.65;50.30;99805.03;6297426;22;20002;-82
2022/03/27 02:29:17;;;;;;;0.00;0.00;;;;;;;6.63;50.00;99805.28;6281597;22;20106;-80
2022/03/27 02:31:44;;;;;;;0.00;0.00;;;;;;;6.60;50.21;99802.28;6293699;22;19983;-81
2022/03/27 02:34:11;;;;;;;0.00;0.00;;;;;;;6.53;50.32;99810.34;6261603;22;20030;-81
2022/03/27 02:36:36;;;;;;;0.00;0.00;;;;;;;6.43;50.71;99808.25;6286821;22;20350;-82
2022/03/27 02:39:03;;;;;;;0.00;0.00;;;;;;;6.38;50.63;99800.16;6283876;22;19995;-80
2022/03/27 02:41:28;;;;;;;0.00;0.00;;;;;;;6.34;50.97;99807.00;6280839;22;20003;-80
2022/03/27 02:43:54;;;;;;;0.00;0.00;;;;;;;6.29;50.73;99804.22;6281505;22;20506;-79
2022/03/27 02:46:20;;;;;;;0.00;0.00;;;;;;;6.29;50.95;99804.22;6281321;22;20007;-78
2022/03/27 02:48:45;;;;;;;1.05;0.95;;;;;;;6.27;51.07;99817.69;6310144;22;20007;-80
2022/03/27 02:51:11;;;;;;;0.00;0.00;;;;;;;6.23;51.24;99814.69;6280895;22;20439;-80
2022/03/27 02:53:36;;;;;;;0.10;0.10;;;;;;;6.27;51.56;99820.38;6280650;22;20388;-80
2022/03/27 02:58:35;;;;;;;0.00;0.00;;;;;;;6.32;51.00;99819.69;6317653;22;20065;-81
2022/03/27 03:01:01;;;;;;;0.00;0.00;;;;;;;6.35;51.15;99827.22;6277604;22;20441;-81
2022/03/27 03:07:14;;;;;;;0.00;0.00;;;;;;;6.46;51.05;99823.75;6298708;22;21017;31
2022/03/27 03:12:26;;;;;;;0.00;0.00;;;;;;;6.47;50.86;99821.88;6313047;22;20019;-81
2022/03/27 03:14:55;;;;;;;2.35;0.55;;;;;;;6.49;51.14;99817.16;6288420;22;20010;-82
2022/03/27 03:29:23;;;;;;;0.00;0.00;;;;;;;6.55;50.61;99837.50;6291981;22;20026;31
2022/03/27 03:44:55;;;;;;;0.00;0.00;;;;;;;6.46;52.16;99841.53;6301613;22;20034;-81
2022/03/27 04:09:32;;;;;;;0.08;0.08;;;;;;;6.66;51.76;99855.31;6299984;22;20673;-82
2022/03/27 04:12:07;;;;;;;0.00;0.00;;;;;;;6.73;51.62;99860.53;6262973;22;20019;-82
2022/03/27 04:14:36;;;;;;;0.00;0.00;;;;;;;6.74;51.64;99859.50;6285388;22;20012;-80
2022/03/27 04:17:03;;;;;;;0.00;0.00;;;;;;;6.78;51.90;99865.94;6298150;22;20003;-82
2022/03/27 04:19:32;;;;;;;0.00;0.00;;;;;;;6.76;51.95;99862.69;6300099;22;19992;-81
2022/03/27 04:21:57;;;;;;;0.05;0.05;;;;;;;6.80;51.77;99857.75;6273362;22;20003;-82
2022/03/27 04:24:23;;;;;;;0.00;0.00;;;;;;;6.80;51.33;99849.75;6324230;22;20006;-80
2022/03/27 04:46:41;;;;;;;0.00;0.00;;;;;;;8.48;48.13;99877.34;6314701;22;20022;-85
2022/03/27 04:49:07;;;;;;;0.00;0.00;;;;;;;8.76;46.92;99890.81;6226984;22;20471;-85
2022/03/27 04:51:32;;;;;;;0.00;0.00;;;;;;;8.99;45.87;99883.72;6250923;22;20011;-83
2022/03/27 04:53:58;;;;;;;0.00;0.00;;;;;;;9.27;45.26;99890.75;6276847;22;20010;-84
2022/03/27 04:56:23;;;;;;;0.00;0.00;;;;;;;9.56;44.67;99891.41;6275733;22;20018;-89
2022/03/27 04:58:49;;;;;;;0.00;0.00;;;;;;;9.87;44.19;99896.31;6276811;22;20424;-88
2022/03/27 05:01:15;;;;;;;1.13;1.08;;;;;;;10.10;42.94;99896.00;6277041;22;20018;-87
2022/03/27 05:03:41;;;;;;;0.00;0.00;;;;;;;10.40;42.65;99891.28;6278742;22;20018;-88
2022/03/27 05:06:06;;;;;;;0.00;0.00;;;;;;;10.62;42.99;99893.84;6174568;22;20019;-90
2022/03/27 05:08:33;;;;;;;0.00;0.00;;;;;;;10.93;42.22;99890.59;6280547;22;20011;-90
2022/03/27 05:10:58;;;;;;;0.00;0.00;;;;;;;11.25;41.07;99898.56;6278737;22;20080;-83
2022/03/27 05:13:24;;;;;;;0.00;0.00;;;;;;;11.52;40.88;99900.31;6278240;22;20436;-85
2022/03/27 05:15:50;;;;;;;0.00;0.00;;;;;;;11.81;40.54;99894.53;6278957;22;20008;-85
2022/03/27 05:18:15;;;;;;;0.00;0.00;;;;;;;12.14;40.16;99900.53;6278812;22;20086;-85
2022/03/27 05:20:42;;;;;;;0.10;0.10;;;;;;;12.42;39.56;99901.13;6278320;22;20033;-82
2022/03/27 05:23:08;;;;;;;0.00;0.00;;;;;;;12.69;38.91;99902.75;6278630;22;20084;-80
2022/03/27 05:25:40;;;;;;;0.00;0.00;;;;;;;12.91;38.67;99905.94;6278629;22;20003;-88
2022/03/27 05:28:07;;;;;;;0.00;0.00;;;;;;;13.21;38.18;99898.13;6278830;22;20064;-84
2022/03/27 05:30:33;;;;;;;0.10;0.10;;;;;;;13.40;37.77;99893.81;6278337;22;20003;-86
2022/03/27 05:32:58;;;;;;;0.10;0.10;;;;;;;13.59;37.13;99902.03;6278266;22;20013;-84
2022/03/27 05:35:24;;;;;;;0.47;0.30;;;;;;;13.83;36.66;99901.44;6278387;22;20008;-82
2022/03/27 05:37:50;;;;;;;0.00;0.00;;;;;;;14.00;36.29;99901.06;6278322;22;20021;-79
2022/03/27 05:40:18;;;;;;;0.10;0.10;;;;;;;14.23;36.32;99896.88;6278395;22;20010;-80
2022/03/27 05:42:43;;;;;;;0.00;0.00;;;;;;;14.46;35.94;99901.84;6277238;22;20014;-81
2022/03/27 05:45:10;;;;;;;1.85;0.57;;;;;;;14.71;35.41;99900.88;6278140;22;20011;-82
2022/03/27 05:47:41;;;;;;;0.00;0.00;;;;;;;14.89;34.88;99897.47;6278368;22;20476;-84
2022/03/27 05:50:08;;;;;;;0.10;0.10;;;;;;;15.02;35.05;99900.59;6277873;22;20432;-81
2022/03/27 05:52:34;;;;;;;0.00;0.00;;;;;;;15.15;34.62;99907.22;6277601;22;20087;-80
2022/03/27 05:54:59;;;;;;;0.05;0.05;;;;;;;15.21;34.15;99914.94;6277606;22;20030;-79
2022/03/27 05:57:25;;;;;;;0.00;0.00;;;;;;;15.26;34.58;99913.28;6277614;22;19995;-78
2022/03/27 05:59:51;;;;;;;0.00;0.00;;;;;;;15.29;34.01;99918.91;6277699;22;20007;-80
2022/03/27 06:02:16;;;;;;;0.10;0.10;;;;;;;15.30;33.83;99919.72;6278216;22;20091;-80
2022/03/27 06:04:42;;;;;;;0.00;0.00;;;;;;;15.32;33.95;99915.63;6278002;22;20062;-80
2022/03/27 06:07:08;;;;;;;0.10;0.10;;;;;;;15.44;34.75;99922.50;6305642;22;20330;-79
2022/03/27 06:09:34;;;;;;;0.10;0.10;;;;;;;15.51;34.40;99926.50;6277819;22;20010;-77
2022/03/27 06:12:00;;;;;;;0.35;0.35;;;;;;;15.55;34.08;99926.72;6278249;22;20003;-79
2022/03/27 06:14:26;;;;;;;0.00;0.00;;;;;;;15.51;34.28;99937.28;6277542;22;20031;-75
2022/03/27 06:16:51;;;;;;;1.00;0.40;;;;;;;15.60;34.47;99929.34;6305033;22;20348;-77
2022/03/27 06:19:17;;;;;;;0.00;0.00;;;;;;;15.66;33.67;99938.16;6278283;22;20011;-76
2022/03/27 06:21:45;;;;;;;1.55;1.45;;;;;;;15.70;34.21;99941.91;6305582;22;20398;-81
2022/03/27 06:24:10;;;;;;;0.00;0.00;;;;;;;15.78;34.47;99941.28;6277822;22;20007;-77
2022/03/27 06:26:36;;;;;;;0.00;0.00;;;;;;;15.89;34.07;99951.97;6275379;22;20082;-76
2022/03/27 06:29:02;;;;;;;0.22;0.22;;;;;;;15.93;32.63;99943.00;6304204;22;20003;-78
2022/03/27 06:31:27;;;;;;;0.10;0.10;;;;;;;15.95;32.74;99937.31;6304817;22;20015;-71
2022/03/27 06:33:53;;;;;;;0.10;0.10;;;;;;;15.91;32.27;99941.69;6304998;22;20425;-74
2022/03/27 06:36:18;;;;;;;0.08;0.08;;;;;;;15.92;33.13;99932.50;6277961;22;20014;-75
2022/03/27 06:38:43;;;;;;;0.30;0.30;;;;;;;15.95;33.04;99934.63;6305071;22;20427;-76
2022/03/27 06:41:09;;;;;;;0.00;0.00;;;;;;;15.96;33.73;99941.63;6278088;22;20444;-76
2022/03/27 06:43:36;;;;;;;0.20;0.20;;;;;;;15.98;33.73;99939.44;6304732;22;20031;-77
2022/03/27 06:46:02;;;;;;;0.10;0.10;;;;;;;16.04;34.11;99935.56;6277176;22;20077;-78
2022/03/27 06:48:27;;;;;;;0.10;0.10;;;;;;;16.09;33.77;99940.09;6277225;22;20403;-76
2022/03/27 06:50:53;;;;;;;0.57;0.57;;;;;;;16.07;34.02;99934.19;6277453;22;20029;-76
2022/03/27 06:53:20;;;;;;;0.10;0.10;;;;;;;16.17;34.15;99928.63;6277580;22;20000;-78
2022/03/27 06:55:49;;;;;;;0.83;0.40;;;;;;;16.30;33.95;99933.31;6277306;22;20452;-81
2022/03/27 06:58:14;;;;;;;0.80;0.80;;;;;;;16.43;33.28;99929.09;6277651;22;20011;-76
2022/03/27 07:03:41;;;;;;;0.10;0.10;;;;;;;16.58;32.60;99933.44;6209716;23;20035;-77
2022/03/27 07:06:07;;;;;;;0.10;0.10;;;;;;;16.69;32.53;99925.19;6179476;22;20011;-83
2022/03/27 07:08:32;;;;;;;0.45;0.45;;;;;;;16.79;32.77;99922.31;6277442;22;20352;-88
2022/03/27 07:10:58;;;;;;;0.50;0.50;;;;;;;16.93;32.88;99916.94;6277774;22;20007;-81
2022/03/27 07:13:23;;;;;;;0.55;0.40;;;;;;;16.95;31.26;99923.69;6277306;22;20007;-82
2022/03/27 07:15:49;;;;;;;0.38;0.38;;;;;;;16.93;31.64;99925.06;6277355;22;20007;-85
2022/03/27 07:18:18;;;;;;;0.32;0.32;;;;;;;16.99;32.04;99929.31;6277816;22;20007;-78
2022/03/27 07:20:46;;;;;;;1.85;1.48;;;;;;;17.02;31.11;99926.00;6304962;22;20417;-82
2022/03/27 07:23:15;;;;;;;0.33;0.33;;;;;;;17.13;31.47;99922.00;6277851;22;20145;-77
2022/03/27 07:25:43;;;;;;;0.28;0.28;;;;;;;17.25;29.98;99923.44;6276678;22;20309;-79
2022/03/27 07:28:10;;;;;;;0.10;0.10;;;;;;;17.27;29.44;99929.31;6276314;22;20490;-79
2022/03/27 07:30:37;;;;;;;0.52;0.52;;;;;;;17.41;30.09;99930.13;6275494;22;20086;-80
2022/03/27 07:33:03;;;;;;;0.10;0.10;;;;;;;17.50;30.43;99930.25;6276982;22;20007;-77
2022/03/27 07:35:32;;;;;;;0.32;0.15;;;;;;;17.55;29.50;99930.16;6303710;22;20008;-78
2022/03/27 07:37:59;;;;;;;0.65;0.65;;;;;;;17.60;29.97;99921.94;6305260;22;20007;-79
2022/03/27 07:40:25;;;;;;;0.00;0.00;;;;;;;17.75;29.98;99925.44;6277718;22;20027;-78
2022/03/27 07:42:51;;;;;;;0.88;0.88;;;;;;;17.78;29.60;99922.09;6276951;22;20433;-79
2022/03/27 07:45:19;;;;;;;0.70;0.70;;;;;;;17.83;29.55;99921.22;6276359;22;20012;-81
2022/03/27 07:47:45;;;;;;;0.10;0.10;;;;;;;17.89;29.68;99928.13;6277646;22;20060;-79
2022/03/27 07:50:11;;;;;;;0.28;0.28;;;;;;;17.89;29.19;99917.28;6277355;22;20004;-87
2022/03/27 07:52:38;;;;;;;0.22;0.22;;;;;;;17.98;29.61;99911.97;6277123;22;20321;-81
2022/03/27 07:55:04;;;;;;;0.10;0.10;;;;;;;18.07;29.06;99907.47;6277340;22;20026;-85
2022/03/27 07:57:29;;;;;;;0.17;0.17;;;;;;;18.13;29.56;99911.66;6276364;22;20007;-80
2022/03/27 07:59:56;;;;;;;0.45;0.45;;;;;;;18.20;29.90;99901.22;6276992;22;20011;-81
2022/03/27 08:02:21;;;;;;;0.03;0.03;;;;;;;18.24;29.44;99907.59;6277362;22;20011;-80
2022/03/27 08:04:47;;;;;;;0.68;0.68;;;;;;;18.33;29.07;99896.84;6277063;22;20053;-80
2022/03/27 08:07:13;;;;;;;0.30;0.30;;;;;;;18.35;29.02;99907.38;6277116;22;20007;-77
2022/03/27 08:09:39;;;;;;;0.52;0.08;;;;;;;18.42;29.10;99896.91;6303507;22;20000;-77
2022/03/27 08:12:07;;;;;;;0.00;0.00;;;;;;;18.42;28.44;99896.09;6304611;22;20026;-77
2022/03/27 08:14:33;;;;;;;0.10;0.10;;;;;;;18.36;28.60;99895.44;6276578;22;20364;-78
2022/03/27 08:16:59;;;;;;;1.05;0.95;;;;;;;18.36;28.99;99890.03;6304006;22;20078;-76
2022/03/27 08:19:25;;;;;;;0.20;0.20;;;;;;;18.44;28.91;99893.91;6303151;22;20042;-78
2022/03/27 08:21:51;;;;;;;0.32;0.32;;;;;;;18.45;28.48;99887.38;6303951;22;20405;-81
2022/03/27 08:24:16;;;;;;;0.00;0.00;;;;;;;18.46;28.95;99883.56;6277345;22;20031;-82
2022/03/27 08:26:57;;;;;;;0.35;0.35;;;;;;;18.41;28.59;99884.47;6276950;22;20011;-79
2022/03/27 08:29:32;;;;;;;0.40;0.25;;;;;;;18.43;29.38;99878.75;6304118;22;20003;-76
2022/03/27 08:32:00;;;;;;;0.63;0.63;;;;;;;18.47;29.04;99874.31;6304160;22;20003;-78
2022/03/27 08:34:28;;;;;;;0.20;0.20;;;;;;;18.55;29.03;99879.00;6276510;22;20011;-79
2022/03/27 08:36:54;;;;;;;0.10;0.10;;;;;;;18.60;29.22;99878.06;6304067;22;19999;-82
2022/03/27 08:39:19;;;;;;;0.40;0.40;;;;;;;18.66;29.04;99877.66;6278782;22;20714;-77
2022/03/27 08:41:47;;;;;;;0.10;0.10;;;;;;;18.74;26.89;99870.66;6278989;22;20014;-79
2022/03/27 08:44:15;;;;;;;0.43;0.43;;;;;;;18.78;27.33;99877.06;6278967;22;20667;-76
2022/03/27 08:46:42;;;;;;;0.10;0.10;;;;;;;18.85;26.40;99880.13;6305690;22;20317;-78
2022/03/27 08:49:19;;;;;;;0.75;0.75;;;;;;;18.92;26.01;99862.66;6305832;22;20012;-78
2022/03/27 08:51:56;;;;;;;0.10;0.10;;;;;;;19.01;25.45;99867.00;6305150;22;19999;-81
2022/03/27 08:54:34;;;;;;;0.47;0.47;;;;;;;19.03;24.05;99862.06;6279008;22;20086;-77
2022/03/27 08:57:27;;;;;;;0.35;0.35;;;;;;;19.15;25.19;99863.38;6305831;22;20056;-75
2022/03/27 08:59:54;;;;;;;1.17;1.17;;;;;;;19.22;24.73;99857.50;6306107;22;19999;-76
2022/03/27 09:02:23;;;;;;;0.10;0.10;;;;;;;19.25;25.22;99865.00;6306394;22;20000;-76
2022/03/27 09:04:52;;;;;;;0.10;0.10;;;;;;;19.30;24.77;99852.13;6305787;22;20010;-76
2022/03/27 09:07:18;;;;;;;0.60;0.60;;;;;;;19.32;23.33;99858.03;6306194;22;20157;-76
2022/03/27 09:09:43;;;;;;;0.40;0.40;;;;;;;19.33;23.25;99861.53;6305805;22;20165;-76
2022/03/27 09:12:10;;;;;;;0.40;0.40;;;;;;;19.33;22.01;99872.38;6278738;22;20007;-76
2022/03/27 09:14:36;;;;;;;0.35;0.30;;;;;;;19.36;22.80;99867.13;6278431;22;20417;-78
2022/03/27 09:17:06;;;;;;;0.50;0.50;;;;;;;19.35;22.76;99865.53;6306085;22;20003;-77
2022/03/27 09:19:34;;;;;;;0.88;0.55;;;;;;;19.37;22.11;99870.63;6306055;22;20007;-77
2022/03/27 09:21:59;;;;;;;0.35;0.35;;;;;;;19.40;22.44;99861.09;6305755;22;20428;-78
2022/03/27 09:24:34;;;;;;;0.25;0.25;;;;;;;19.49;22.42;99856.47;6305707;22;20066;-78
2022/03/27 09:27:01;;;;;;;0.10;0.10;;;;;;;19.53;22.47;99852.03;6306224;22;19999;-78
2022/03/27 09:29:26;;;;;;;0.10;0.10;;;;;;;19.57;22.50;99865.75;6306110;22;20004;-75
2022/03/27 09:31:58;;;;;;;0.20;0.20;;;;;;;19.63;22.51;99859.06;6278199;22;20010;-78
2022/03/27 09:34:23;;;;;;;0.10;0.10;;;;;;;19.69;21.89;99860.50;6305650;22;20060;-77
2022/03/27 09:36:50;;;;;;;0.80;0.80;;;;;;;19.71;22.14;99855.53;6305806;22;20391;-78
2022/03/27 09:39:18;;;;;;;0.20;0.20;;;;;;;19.77;22.00;99864.34;6306079;22;20006;-75
2022/03/27 09:41:53;;;;;;;0.10;0.10;;;;;;;19.80;21.94;99866.44;6305606;22;20082;-78
2022/03/27 09:44:29;;;;;;;0.10;0.10;;;;;;;19.83;21.54;99854.91;6305739;22;20430;-77
2022/03/27 09:46:57;;;;;;;0.20;0.20;;;;;;;19.89;21.37;99861.03;6304994;22;20397;-79
2022/03/27 09:49:25;;;;;;;1.70;0.63;;;;;;;19.90;20.42;99859.91;6278448;22;20004;-78
2022/03/27 09:51:59;;;;;;;0.47;0.47;;;;;;;19.87;20.59;99855.91;6305646;22;20003;-77
2022/03/27 09:54:27;;;;;;;0.30;0.30;;;;;;;19.88;21.10;99854.00;6305807;22;20004;-77
2022/03/27 09:56:53;;;;;;;0.10;0.10;;;;;;;19.90;21.76;99847.13;6305624;22;20452;-75
2022/03/27 09:59:34;;;;;;;0.30;0.30;;;;;;;19.92;22.11;99844.91;6305808;22;20003;-78
2022/03/27 10:02:20;;;;;;;0.45;0.38;;;;;;;19.96;21.86;99843.13;6305555;22;20429;-75
2022/03/27 10:04:52;;;;;;;0.70;0.70;;;;;;;19.99;22.11;99847.94;6304570;22;20010;-76
2022/03/27 10:07:22;;;;;;;0.22;0.22;;;;;;;20.02;21.01;99840.25;6278316;22;20003;-77
2022/03/27 10:09:48;;;;;;;0.10;0.10;;;;;;;20.05;20.35;99843.13;6304624;22;20007;-77
2022/03/27 10:12:16;;;;;;;0.22;0.22;;;;;;;20.01;19.93;99839.47;6305614;22;20010;-77
2022/03/27 10:14:43;;;;;;;0.77;0.77;;;;;;;20.03;20.25;99833.72;6304206;22;20333;-76
2022/03/27 10:17:12;;;;;;;0.20;0.20;;;;;;;20.06;20.78;99835.81;6305479;22;20003;-77
2022/03/27 10:19:50;;;;;;;0.68;0.68;;;;;;;20.09;21.59;99829.72;6304984;22;20106;-76
2022/03/27 10:22:20;;;;;;;;;;;;;;;20.09;21.36;99824.28;6306122;22;20443;-76
2022/03/27 10:24:48;;;;;;;0.10;0.10;;;;;;;20.10;21.39;99812.31;6305311;22;20213;-76
2022/03/27 10:27:17;;;;;;;0.10;0.10;;;;;;;20.12;21.66;99815.50;6305176;22;20030;-76
2022/03/27 10:29:43;;;;;;;0.10;0.10;;;;;;;20.14;21.33;99813.25;6277803;22;20470;-77
2022/03/27 10:32:10;;;;;;;0.45;0.45;;;;;;;20.19;21.33;99807.69;6305400;22;20028;-77
2022/03/27 10:34:46;;;;;;;0.20;0.20;;;;;;;20.24;21.42;99818.38;6304933;22;20026;-75
2022/03/27 10:37:25;;;;;;;0.47;0.47;;;;;;;20.26;21.25;99815.31;6305507;22;19999;-77
2022/03/27 10:39:58;;;;;;;0.28;0.28;;;;;;;20.29;20.68;99815.47;6304398;22;20090;-77
2022/03/27 10:42:49;;;;;;;0.38;0.38;;;;;;;20.36;21.16;99811.47;6305379;22;20413;-76
2022/03/27 10:45:18;;;;;;;0.28;0.28;;;;;;;20.40;20.49;99809.72;6277995;22;20632;-78
2022/03/27 10:47:43;;;;;;;0.93;0.45;;;;;;;20.41;21.03;99812.09;6304151;22;20037;-77
2022/03/27 10:50:09;;;;;;;0.20;0.20;;;;;;;20.48;20.80;99809.69;6305222;22;20290;-77
2022/03/27 10:52:36;;;;;;;0.47;0.47;;;;;;;20.46;21.19;99811.91;6305280;22;20003;-77
2022/03/27 10:55:11;;;;;;;0.10;0.10;;;;;;;20.50;20.73;99808.56;6304848;22;20082;-77
2022/03/27 10:57:42;;;;;;;0.10;0.10;;;;;;;20.48;20.57;99806.97;6304895;22;19999;-77
2022/03/27 11:00:10;;;;;;;0.20;0.20;;;;;;;20.52;21.27;99801.69;6304723;22;20014;-77
2022/03/27 11:02:50;;;;;;;0.10;0.10;;;;;;;20.52;21.26;99801.69;6304953;22;19999;-76
2022/03/27 11:05:36;;;;;;;0.10;0.10;;;;;;;20.62;21.24;99795.88;6304978;22;20003;-76
2022/03/27 11:08:17;;;;;;;0.10;0.10;;;;;;;20.64;20.99;99790.94;6304805;22;20003;-76
2022/03/27 11:10:43;;;;;;;0.10;0.10;;;;;;;20.67;21.08;99786.75;6303784;22;20013;-76
2022/03/27 11:13:27;;;;;;;0.75;0.38;;;;;;;20.69;20.38;99781.00;6304922;22;20027;-76
2022/03/27 11:16:09;;;;;;;0.30;0.30;;;;;;;20.63;20.07;99766.81;6304676;22;20003;-75
2022/03/27 11:18:40;;;;;;;0.32;0.32;;;;;;;20.67;20.46;99777.81;6305115;22;20031;-76
2022/03/27 11:21:07;;;;;;;0.10;0.10;;;;;;;20.72;20.02;99759.44;6304127;22;20007;-76
2022/03/27 11:23:38;;;;;;;0.63;0.63;;;;;;;20.75;20.44;99761.50;6304392;22;20086;-77
2022/03/27 11:26:19;;;;;;;0.28;0.28;;;;;;;20.83;19.16;99767.25;6304720;22;20010;-76
2022/03/27 11:28:55;;;;;;;0.08;0.08;;;;;;;20.85;19.13;99749.47;6304635;22;20105;-77
2022/03/27 11:31:33;;;;;;;0.40;0.40;;;;;;;20.86;18.87;99751.06;6304625;22;20006;-76
2022/03/27 11:34:04;;;;;;;0.70;0.70;;;;;;;20.94;18.95;99766.50;6277094;22;20003;-77
2022/03/27 11:36:31;;;;;;;0.40;0.40;;;;;;;20.99;18.67;99751.16;6304898;22;19999;-74
2022/03/27 11:39:08;;;;;;;0.10;0.10;;;;;;;21.00;18.46;99747.31;6277106;22;20000;-77
2022/03/27 11:41:44;;;;;;;0.30;0.30;;;;;;;21.03;18.85;99749.38;6277265;22;19999;-77
2022/03/27 11:47:33;;;;;;;0.10;0.10;;;;;;;21.16;19.40;99737.44;6304622;22;20022;-76
2022/03/27 11:49:58;;;;;;;0.68;0.68;;;;;;;21.21;17.89;99737.25;6277156;22;20057;-77
2022/03/27 11:52:24;;;;;;;0.28;0.28;;;;;;;21.27;17.55;99735.91;6304362;22;19999;-77
2022/03/27 11:54:49;;;;;;;0.38;0.38;;;;;;;21.28;17.25;99737.50;6304314;22;20038;-77
2022/03/27 11:57:18;;;;;;;0.32;0.32;;;;;;;21.31;17.33;99722.44;6304754;22;20424;-77
2022/03/27 11:59:47;;;;;;;0.38;0.38;;;;;;;21.31;16.61;99716.22;6304096;22;20087;-77
2022/03/27 12:02:14;;;;;;;0.17;0.17;;;;;;;21.35;17.20;99723.41;6304591;22;20460;-77
2022/03/27 12:04:52;;;;;;;0.32;0.32;;;;;;;21.37;17.14;99726.59;6304706;22;20007;-77
2022/03/27 12:07:18;;;;;;;0.28;0.28;;;;;;;21.40;17.33;99703.38;6304371;22;20462;-77
2022/03/27 12:09:43;;;;;;;0.45;0.20;;;;;;;21.44;17.38;99699.63;6304170;22;20007;-77
2022/03/27 12:12:14;;;;;;;0.22;0.22;;;;;;;21.51;16.47;99706.47;6305227;22;20000;-77
2022/03/27 12:14:54;;;;;;;1.02;0.40;;;;;;;21.53;17.14;99705.00;6306432;22;20060;-77
2022/03/27 12:17:22;;;;;;;0.17;0.17;;;;;;;21.50;16.44;99685.84;6306724;22;20078;-77
2022/03/27 12:19:57;;;;;;;0.47;0.45;;;;;;;21.57;16.90;99694.28;6306515;22;20037;-77
2022/03/27 12:22:43;;;;;;;0.22;0.22;;;;;;;21.61;16.72;99683.53;6306734;22;20010;-76
2022/03/27 12:25:19;;;;;;;0.32;0.32;;;;;;;21.66;16.43;99694.19;6306288;22;20006;-77
2022/03/27 12:30:35;;;;;;;0.32;0.32;;;;;;;21.71;17.03;99686.59;6306398;22;20038;-76
2022/03/27 12:33:01;;;;;;;0.10;0.10;;;;;;;21.73;16.13;99681.63;6306225;22;20061;-76
2022/03/27 12:35:28;;;;;;;0.10;0.10;;;;;;;21.74;16.52;99688.66;6306719;22;20078;-76
2022/03/27 12:37:54;;;;;;;0.10;0.10;;;;;;;21.75;16.04;99690.25;6306150;22;20003;-77
2022/03/27 12:40:19;;;;;;;0.95;0.52;;;;;;;21.75;16.06;99684.00;6306617;22;20033;-76
2022/03/27 12:42:47;;;;;;;0.10;0.10;;;;;;;21.78;16.69;99682.56;6306296;22;20057;-76
2022/03/27 12:45:36;;;;;;;0.10;0.10;;;;;;;21.77;16.21;99678.25;6306175;22;20011;-76
2022/03/27 12:48:08;;;;;;;0.00;0.00;;;;;;;21.82;16.66;99678.81;6306179;22;20444;-75
2022/03/27 12:50:39;;;;;;;0.22;0.17;;;;;;;21.85;16.80;99670.00;6306482;22;20049;-79
2022/03/27 12:53:11;;;;;;;0.10;0.10;;;;;;;21.89;16.48;99662.72;6305652;22;20011;-77
2022/03/27 12:55:45;;;;;;;0.35;0.35;;;;;;;21.87;15.77;99667.72;6306333;22;20074;-77
2022/03/27 12:58:12;;;;;;;0.32;0.32;;;;;;;21.89;16.16;99660.00;6306250;22;20026;-77
2022/03/27 13:00:40;;;;;;;0.20;0.20;;;;;;;21.90;15.95;99649.91;6305969;22;20425;-77
2022/03/27 13:03:19;;;;;;;0.90;0.90;;;;;;;21.92;15.95;99653.09;6306091;22;20082;-77
2022/03/27 13:06:01;;;;;;;0.10;0.10;;;;;;;21.92;16.71;99655.81;6306412;22;19999;-77
2022/03/27 13:08:27;;;;;;;0.65;0.65;;;;;;;21.87;16.70;99640.50;6306300;22;19999;-77
2022/03/27 13:11:01;;;;;;;0.60;0.60;;;;;;;21.90;16.72;99650.72;6305767;22;20010;-77
2022/03/27 13:13:40;;;;;;;0.20;0.20;;;;;;;21.94;16.51;99647.31;6305199;22;20006;-77
2022/03/27 13:16:29;;;;;;;0.20;0.20;;;;;;;21.94;16.40;99656.28;6305994;22;20433;-76
2022/03/27 13:19:00;;;;;;;0.10;0.10;;;;;;;21.91;16.04;99651.50;6305883;22;20428;-77
2022/03/27 13:21:30;;;;;;;0.10;0.10;;;;;;;21.93;15.55;99659.34;6306036;22;20007;-77
2022/03/27 13:23:56;;;;;;;0.08;0.08;;;;;;;21.93;16.29;99651.94;6278307;22;20352;-77
2022/03/27 13:26:22;;;;;;;0.05;0.05;;;;;;;21.94;16.05;99656.28;6305949;22;20075;-77
2022/03/27 13:28:47;;;;;;;0.43;0.43;;;;;;;22.00;16.34;99654.13;6305263;22;20475;-77
2022/03/27 13:31:13;;;;;;;0.10;0.10;;;;;;;22.02;16.80;99647.22;6305868;22;20011;-77
2022/03/27 13:33:39;;;;;;;0.50;0.50;;;;;;;22.07;16.57;99636.09;6305836;22;20009;-77
2022/03/27 13:36:05;;;;;;;0.00;0.00;;;;;;;22.02;16.94;99636.31;6305503;22;20003;-76
2022/03/27 13:38:30;;;;;;;0.40;0.40;;;;;;;22.09;16.12;99641.19;6304576;22;20003;-76
2022/03/27 13:43:40;;;;;;;0.10;0.10;;;;;;;22.13;15.76;99630.41;6305266;22;20018;-76
2022/03/27 13:46:05;;;;;;;0.10;0.10;;;;;;;22.12;15.72;99631.53;6305216;22;20015;-76
2022/03/27 13:48:31;;;;;;;0.10;0.10;;;;;;;22.14;15.71;99630.09;6278553;22;20008;-76
2022/03/27 13:50:56;;;;;;;0.00;0.00;;;;;;;22.14;15.39;99630.09;6305519;22;20074;-77
2022/03/27 13:53:22;;;;;;;0.20;0.20;;;;;;;22.14;15.93;99626.56;6305843;22;20441;-77
2022/03/27 13:55:48;;;;;;;0.13;0.13;;;;;;;22.14;16.59;99624.66;6305873;22;20016;-77
2022/03/27 13:58:13;;;;;;;0.32;0.32;;;;;;;22.14;16.10;99621.94;6304776;22;20004;-77
2022/03/27 14:00:39;;;;;;;0.20;0.20;;;;;;;22.17;16.27;99623.16;6305536;22;20035;-77
2022/03/27 14:03:04;;;;;;;0.10;0.10;;;;;;;22.19;16.38;99626.34;6305450;22;20344;-77
2022/03/27 14:05:30;;;;;;;0.85;0.77;;;;;;;22.18;16.30;99622.00;6305159;22;19999;-77
2022/03/27 14:07:55;;;;;;;0.00;0.00;;;;;;;22.15;16.27;99620.00;6305347;22;20458;-77
2022/03/27 14:10:23;;;;;;;0.10;0.10;;;;;;;22.18;16.36;99624.75;6305540;22;20007;-77
2022/03/27 14:12:49;;;;;;;0.32;0.32;;;;;;;22.14;16.04;99627.38;6305572;22;20007;-77
2022/03/27 14:15:16;;;;;;;0.10;0.10;;;;;;;22.13;15.77;99620.34;6305634;22;20009;-77